TimeMST,TemperatureF,Dew PointF,Humidity,Sea Level PressureIn,VisibilityMPH,Wind Direction,Wind SpeedMPH,Gust SpeedMPH,PrecipitationIn,Events,Conditions,WindDirDegrees,DateUTC
12:00 AM,42.8,23.0,46,30.00,9.0,West,36.8,47.2,N/A,,Clear,260,2013-11-24 07:00:00
1:00 AM,42.8,23.0,46,29.99,9.0,West,34.5,42.6,N/A,,Overcast,260,2013-11-24 08:00:00
2:00 AM,44.6,23.0,43,30.00,9.0,West,29.9,39.1,N/A,,Overcast,260,2013-11-24 09:00:00
3:00 AM,42.8,23.0,46,30.02,9.0,West,27.6,35.7,N/A,,Partly Cloudy,270,2013-11-24 10:00:00
4:00 AM,42.8,24.8,49,30.04,9.0,West,15.0,20.7,N/A,,Overcast,270,2013-11-24 11:00:00
5:00 AM,-6,-12,63,29.96,,SE,9.2,,,,,130,2013-11-24 12:00:00
5:00 AM,39.2,26.6,61,30.07,9.0,West,12.7,18.4,N/A,,Scattered Clouds,270,2013-11-24 12:00:00
6:00 AM,35.6,24.8,65,30.07,15.0,WSW,13.8,-,N/A,,Overcast,250,2013-11-24 13:00:00
7:00 AM,33.8,24.8,70,30.06,15.0,WSW,15.0,-,N/A,,Mostly Cloudy,250,2013-11-24 14:00:00
8:00 AM,32.0,23.0,69,30.06,40.0,WSW,15.0,-,N/A,,Mostly Cloudy,250,2013-11-24 15:00:00
9:00 AM,35.6,23.0,60,30.05,40.0,WSW,13.8,-,N/A,,Mostly Cloudy,250,2013-11-24 16:00:00
10:00 AM,41.0,23.0,49,30.04,40.0,West,17.3,-,N/A,,Scattered Clouds,270,2013-11-24 17:00:00
11:00 AM,-10,-16,60,30.12,,South,1.2,,,,,190,2013-11-24 18:00:00
11:00 AM,46.4,24.8,43,30.05,40.0,WSW,3.5,-,N/A,,Mostly Cloudy,240,2013-11-24 18:00:00
12:00 PM,48.2,26.6,43,30.05,40.0,West,16.1,-,N/A,,Mostly Cloudy,280,2013-11-24 19:00:00
1:00 PM,51.8,26.6,38,30.06,40.0,West,11.5,-,N/A,,Mostly Cloudy,270,2013-11-24 20:00:00
2:00 PM,48.2,24.8,40,30.09,40.0,NW,23.0,29.9,N/A,,Scattered Clouds,320,2013-11-24 21:00:00
3:00 PM,39.2,26.6,61,30.16,40.0,North,11.5,24.2,N/A,,Mostly Cloudy,360,2013-11-24 22:00:00
4:00 PM,37.4,24.8,60,30.22,40.0,NNW,11.5,20.7,N/A,,Mostly Cloudy,330,2013-11-24 23:00:00
5:00 PM,-14,-19,64,30.25,,SW,5.8,,,,,230,2013-11-25 00:00:00
5:00 PM,33.8,24.8,70,30.26,40.0,WNW,11.5,-,N/A,,Mostly Cloudy,290,2013-11-25 00:00:00
6:00 PM,32.0,26.6,80,30.28,15.0,WNW,12.7,-,N/A,,Mostly Cloudy,290,2013-11-25 01:00:00
7:00 PM,30.2,24.8,80,30.32,15.0,West,12.7,-,N/A,,Mostly Cloudy,280,2013-11-25 02:00:00
8:00 PM,28.4,24.8,86,30.34,15.0,WNW,15.0,-,N/A,,Mostly Cloudy,290,2013-11-25 03:00:00
9:00 PM,24.8,21.2,86,30.35,15.0,West,11.5,-,N/A,,Scattered Clouds,260,2013-11-25 04:00:00
10:00 PM,23.0,21.2,93,30.34,15.0,West,11.5,-,N/A,,Partly Cloudy,260,2013-11-25 05:00:00
11:00 PM,-16,-20,70,30.31,,SW,2.3,,,,,220,2013-11-25 06:00:00
11:00 PM,21.2,19.4,93,30.35,9.0,WSW,12.7,-,N/A,,Clear,240,2013-11-25 06:00:00